Time;durP1;ratioP1;P1;durP2;ratioP2;P2;SDS_P1;SDS_P2;PMS_P1;PMS_P2;Temp;Humidity;BMP_temperature;BMP_pressure;BME280_temperature;BME280_humidity;BME280_pressure;Samples;Min_cycle;Max_cycle;Signal;HPM_P1;HPM_P2
2022/11/17 00:00:31;;;;;;;0.40;0.40;;;13.00;99.90;;;;;;5035105;28;20576;-83
2022/11/17 00:02:56;;;;;;;0.80;0.40;;;13.00;99.90;;;;;;5034407;28;20029;-84
2022/11/17 00:05:22;;;;;;;2.67;0.70;;;13.10;99.90;;;;;;5012976;28;20075;-82
2022/11/17 00:07:49;;;;;;;0.60;0.50;;;13.00;99.90;;;;;;5010900;28;20040;-83
2022/11/17 00:10:16;;;;;;;0.60;0.47;;;13.10;99.90;;;;;;5021457;28;20690;-80
2022/11/17 00:15:26;;;;;;;0.88;0.43;;;13.10;99.90;;;;;;5018341;28;20098;-81
2022/11/17 00:23:48;;;;;;;0.50;0.50;;;13.10;99.90;;;;;;4949263;28;20113;-81
2022/11/17 00:26:28;;;;;;;0.40;0.40;;;13.10;99.90;;;;;;5005756;28;20452;-81
2022/11/17 00:28:59;;;;;;;0.52;0.40;;;13.10;99.90;;;;;;5022203;28;20088;-81
2022/11/17 00:34:17;;;;;;;0.50;0.50;;;13.20;99.90;;;;;;5035879;28;20032;-82
2022/11/17 00:36:48;;;;;;;0.40;0.40;;;13.20;99.90;;;;;;5020678;28;20039;-81
2022/11/17 00:39:15;;;;;;;1.20;0.52;;;13.20;99.90;;;;;;5016858;28;20025;-82
2022/11/17 00:41:44;;;;;;;1.30;0.50;;;13.20;99.90;;;;;;5020957;28;20027;-81
2022/11/17 00:44:10;;;;;;;0.50;0.50;;;13.20;99.90;;;;;;5010423;28;20025;-81
2022/11/17 00:46:37;;;;;;;0.70;0.60;;;13.20;99.90;;;;;;5015105;28;20112;-82
2022/11/17 00:49:04;;;;;;;0.43;0.40;;;13.20;99.90;;;;;;5020903;28;20648;-82
2022/11/17 00:51:30;;;;;;;1.67;0.55;;;13.20;99.90;;;;;;5027547;28;20049;-82
2022/11/17 00:53:56;;;;;;;0.50;0.40;;;13.10;99.90;;;;;;5000533;28;20653;-81
2022/11/17 00:56:22;;;;;;;0.90;0.40;;;13.10;99.90;;;;;;5022204;28;20029;-81
2022/11/17 00:58:47;;;;;;;0.47;0.40;;;13.10;99.90;;;;;;5025601;28;20080;-82
2022/11/17 01:01:13;;;;;;;0.90;0.40;;;13.10;99.90;;;;;;5027873;28;20022;-81
2022/11/17 01:03:39;;;;;;;1.02;0.63;;;13.00;99.90;;;;;;5021467;28;20060;-81
2022/11/17 01:06:07;;;;;;;0.32;0.30;;;13.00;99.90;;;;;;5012622;28;20534;-80
2022/11/17 01:08:34;;;;;;;0.40;0.40;;;13.00;99.90;;;;;;5007637;28;20078;-80
2022/11/17 01:11:17;;;;;;;1.63;0.50;;;13.00;99.90;;;;;;5034920;28;20013;-81
2022/11/17 01:13:44;;;;;;;0.47;0.40;;;13.00;99.90;;;;;;5024553;28;20037;-81
2022/11/17 01:16:13;;;;;;;0.50;0.45;;;13.00;99.90;;;;;;5021661;28;20025;-81
2022/11/17 01:18:39;;;;;;;1.23;0.38;;;12.90;99.90;;;;;;5034634;28;20033;-80
2022/11/17 01:21:11;;;;;;;0.82;0.50;;;12.90;99.90;;;;;;5053494;28;20098;-80
2022/11/17 01:23:38;;;;;;;1.73;0.70;;;12.90;99.90;;;;;;5012205;28;20594;-81
2022/11/17 01:26:16;;;;;;;2.13;0.70;;;12.90;99.90;;;;;;5028561;28;20262;-80
2022/11/17 01:28:42;;;;;;;2.40;0.60;;;12.90;99.90;;;;;;5031284;28;20463;-80
2022/11/17 01:31:12;;;;;;;1.42;0.65;;;12.90;99.90;;;;;;5016244;28;20292;-81
2022/11/17 01:33:38;;;;;;;1.08;0.50;;;12.90;99.90;;;;;;5032193;28;20029;-81
2022/11/17 01:36:07;;;;;;;1.30;0.53;;;12.90;99.90;;;;;;5024799;28;20025;-81
2022/11/17 01:38:32;;;;;;;1.33;0.70;;;12.90;99.90;;;;;;5032122;28;20389;-81
2022/11/17 01:41:00;;;;;;;0.90;0.32;;;12.90;99.90;;;;;;4999672;28;20239;-81
2022/11/17 01:43:47;;;;;;;1.25;0.40;;;12.90;99.90;;;;;;5028669;28;20108;-81
2022/11/17 01:46:38;;;;;;;2.45;0.73;;;12.90;99.90;;;;;;5040634;28;20097;-81
2022/11/17 01:49:09;;;;;;;1.33;0.50;;;12.90;99.90;;;;;;5014808;28;20482;-81
2022/11/17 01:51:39;;;;;;;1.00;0.60;;;12.90;99.90;;;;;;5032440;28;20473;-81
2022/11/17 01:54:06;;;;;;;1.13;0.60;;;12.90;99.90;;;;;;5021164;28;20656;-80
2022/11/17 01:56:38;;;;;;;2.08;0.60;;;12.90;99.90;;;;;;5034788;28;20033;-81
2022/11/17 01:59:22;;;;;;;1.27;0.60;;;12.90;99.90;;;;;;5019288;28;20029;-81
2022/11/17 02:01:57;;;;;;;1.27;0.63;;;12.90;99.90;;;;;;5050141;28;20029;-81
2022/11/17 02:04:32;;;;;;;1.25;0.50;;;12.90;99.90;;;;;;5035543;28;20520;-81
2022/11/17 02:07:23;;;;;;;1.65;0.60;;;12.80;99.90;;;;;;5000417;28;20099;-80
2022/11/17 02:09:50;;;;;;;0.68;0.43;;;12.80;99.90;;;;;;5021544;28;20017;-80
2022/11/17 02:12:17;;;;;;;2.60;0.70;;;12.80;99.90;;;;;;5018365;28;20022;-80
2022/11/17 02:14:43;;;;;;;0.60;0.50;;;12.80;99.90;;;;;;5036006;28;20119;-81
2022/11/17 02:17:10;;;;;;;1.00;0.60;;;12.80;99.90;;;;;;5053714;28;20483;-80
2022/11/17 02:19:41;;;;;;;1.63;0.50;;;12.80;99.90;;;;;;5020921;28;20033;-81
2022/11/17 02:22:32;;;;;;;0.85;0.50;;;12.80;99.90;;;;;;5005209;28;20045;-81
2022/11/17 02:25:27;;;;;;;2.67;0.63;;;12.80;99.90;;;;;;5050542;28;20233;-81
2022/11/17 02:28:15;;;;;;;1.40;0.60;;;12.80;99.90;;;;;;4996587;28;20041;-81
2022/11/17 02:31:08;;;;;;;2.20;0.45;;;12.90;99.90;;;;;;5030328;28;20022;-81
2022/11/17 02:33:55;;;;;;;2.35;0.73;;;12.90;99.90;;;;;;5015079;28;20108;-82
2022/11/17 02:36:52;;;;;;;2.33;0.68;;;12.90;99.90;;;;;;5031140;28;20565;-81
2022/11/17 02:39:27;;;;;;;2.17;0.60;;;12.90;99.90;;;;;;4990944;28;20107;-81
2022/11/17 02:42:15;;;;;;;2.33;0.73;;;12.90;99.90;;;;;;5021626;28;20577;-81
2022/11/17 02:44:45;;;;;;;3.78;0.68;;;12.90;99.90;;;;;;5036632;28;20030;-82
2022/11/17 02:47:31;;;;;;;1.33;0.60;;;12.90;99.90;;;;;;5039987;28;20033;-82
2022/11/17 02:50:00;;;;;;;0.98;0.57;;;13.00;99.90;;;;;;4998019;28;20033;-82
2022/11/17 02:52:28;;;;;;;0.85;0.50;;;13.00;99.90;;;;;;5023896;28;20260;-80
2022/11/17 02:55:02;;;;;;;1.90;0.80;;;13.00;99.90;;;;;;5017722;28;20049;-82
2022/11/17 02:57:28;;;;;;;1.42;0.50;;;13.00;99.90;;;;;;4999241;28;20539;-81
2022/11/17 02:59:55;;;;;;;2.10;0.60;;;13.00;99.90;;;;;;5024473;28;20334;-81
2022/11/17 03:02:54;;;;;;;1.77;0.60;;;13.00;99.90;;;;;;5027458;28;20290;-82
2022/11/17 03:05:33;;;;;;;2.75;0.50;;;13.10;99.90;;;;;;5008328;28;20090;-81
2022/11/17 03:08:22;;;;;;;2.42;0.60;;;13.10;99.90;;;;;;5021250;28;20044;-81
2022/11/17 03:10:58;;;;;;;1.85;0.70;;;13.10;99.90;;;;;;5013891;28;20029;-81
2022/11/17 03:13:29;;;;;;;1.80;0.60;;;13.10;99.90;;;;;;5005920;28;20033;-81
2022/11/17 03:16:34;;;;;;;2.08;0.70;;;13.10;99.90;;;;;;5045238;28;20022;-82
2022/11/17 03:19:14;;;;;;;1.50;0.50;;;13.20;99.90;;;;;;5039554;28;20128;-82
2022/11/17 03:22:05;;;;;;;1.35;0.50;;;13.10;99.90;;;;;;5007271;28;20131;-82
2022/11/17 03:24:46;;;;;;;0.82;0.50;;;13.20;99.90;;;;;;5016870;28;22697;-81
2022/11/17 03:27:38;;;;;;;0.80;0.40;;;13.20;99.90;;;;;;5016073;28;20013;-82
2022/11/17 03:30:07;;;;;;;1.73;0.60;;;13.20;99.90;;;;;;4990190;28;20028;-82
2022/11/17 03:32:38;;;;;;;2.15;0.50;;;13.20;99.90;;;;;;5027364;28;20760;-82
2022/11/17 03:35:13;;;;;;;1.42;0.50;;;13.10;99.90;;;;;;5022114;28;20056;-83
2022/11/17 03:37:48;;;;;;;2.78;1.00;;;13.20;99.90;;;;;;5026711;28;20029;-84
2022/11/17 03:40:18;;;;;;;2.23;0.60;;;13.20;99.90;;;;;;5017186;28;20880;-85
2022/11/17 03:42:52;;;;;;;1.77;0.60;;;13.20;99.90;;;;;;5024494;28;20108;-84
2022/11/17 03:45:23;;;;;;;1.38;0.55;;;13.20;99.90;;;;;;4990951;28;20118;-84
2022/11/17 03:47:55;;;;;;;2.55;0.70;;;13.20;99.90;;;;;;5045622;28;20123;-84
2022/11/17 03:50:27;;;;;;;3.05;0.70;;;13.20;99.90;;;;;;5028083;28;20714;-85
2022/11/17 03:52:53;;;;;;;2.17;0.70;;;13.30;99.90;;;;;;5014427;28;20171;-85
2022/11/17 03:55:21;;;;;;;2.80;0.70;;;13.20;99.90;;;;;;5034317;28;20162;-84
2022/11/17 03:57:47;;;;;;;2.85;0.70;;;13.30;99.90;;;;;;5040511;28;20033;-83
2022/11/17 04:00:15;;;;;;;2.90;0.80;;;13.30;99.90;;;;;;5001014;28;20245;-83
2022/11/17 04:02:42;;;;;;;2.67;0.65;;;13.30;99.90;;;;;;5017627;28;20028;-83
2022/11/17 04:05:09;;;;;;;1.73;0.77;;;13.30;99.90;;;;;;5024518;28;20094;-82
2022/11/17 04:07:43;;;;;;;1.45;0.70;;;13.30;99.90;;;;;;5015747;28;20009;-83
2022/11/17 04:10:14;;;;;;;2.25;0.80;;;13.30;99.90;;;;;;5021765;28;20069;-84
2022/11/17 04:15:55;;;;;;;3.33;0.75;;;13.30;99.90;;;;;;5011600;28;20123;-84
2022/11/17 04:18:17;;;;;;;3.38;0.90;;;13.30;99.90;;;;;;5022448;28;20033;-85
2022/11/17 04:20:44;;;;;;;3.92;1.15;;;13.30;99.90;;;;;;5044357;28;20372;-84
2022/11/17 04:23:14;;;;;;;3.58;0.85;;;13.30;99.90;;;;;;5019024;28;20440;-84
2022/11/17 04:28:37;;;;;;;1.77;0.77;;;13.30;99.90;;;;;;5022287;28;20354;-83
2022/11/17 04:31:19;;;;;;;4.03;0.95;;;13.30;99.90;;;;;;5034957;28;20472;-82
2022/11/17 04:33:47;;;;;;;2.05;0.88;;;13.30;99.90;;;;;;5011423;28;20038;-82
2022/11/17 04:36:16;;;;;;;2.55;0.70;;;13.30;99.90;;;;;;5039598;28;20188;-81
2022/11/17 04:38:47;;;;;;;2.20;0.90;;;13.30;99.90;;;;;;5022111;28;20025;-84
2022/11/17 04:43:59;;;;;;;3.33;0.73;;;13.30;99.90;;;;;;5010202;28;20043;-83
2022/11/17 04:46:26;;;;;;;2.30;0.70;;;13.30;99.90;;;;;;5026761;28;20209;-82
2022/11/17 04:48:53;;;;;;;2.28;0.70;;;13.30;99.90;;;;;;4994149;28;20068;-83
2022/11/17 04:51:19;;;;;;;3.63;0.80;;;13.20;99.90;;;;;;5029512;28;20154;-83
2022/11/17 04:53:44;;;;;;;1.75;0.60;;;13.30;99.90;;;;;;5023742;28;20040;-82
2022/11/17 04:56:10;;;;;;;2.90;1.15;;;13.30;99.90;;;;;;5016403;28;20583;-81
2022/11/17 04:58:36;;;;;;;2.43;0.80;;;13.30;99.90;;;;;;5019453;28;20043;-82
2022/11/17 05:01:11;;;;;;;4.55;0.88;;;13.30;99.90;;;;;;5024621;28;20072;-82
2022/11/17 05:03:53;;;;;;;1.05;0.70;;;13.30;99.90;;;;;;5033599;28;20037;-83
2022/11/17 05:06:31;;;;;;;2.47;0.60;;;13.30;99.90;;;;;;5025770;28;20029;-82
2022/11/17 05:08:58;;;;;;;3.13;0.70;;;13.30;99.90;;;;;;5030365;28;20053;-81
2022/11/17 05:14:12;;;;;;;3.25;0.80;;;13.20;99.90;;;;;;5021979;28;20344;-83
2022/11/17 05:19:24;;;;;;;2.37;0.60;;;13.20;99.90;;;;;;5009368;28;20221;-84
2022/11/17 05:21:50;;;;;;;1.35;0.60;;;13.10;99.90;;;;;;5032765;28;20032;-83
2022/11/17 05:24:16;;;;;;;2.05;0.70;;;13.00;99.90;;;;;;5015709;28;20516;-84
2022/11/17 05:26:44;;;;;;;1.17;0.63;;;13.00;99.90;;;;;;5034514;28;20029;-83
2022/11/17 05:29:11;;;;;;;1.37;0.43;;;13.00;99.90;;;;;;5016917;28;20072;-83
2022/11/17 05:31:37;;;;;;;2.30;0.70;;;12.90;99.90;;;;;;5036247;28;20013;-83
2022/11/17 05:34:04;;;;;;;2.25;0.50;;;12.90;99.90;;;;;;5007976;28;20543;-83
2022/11/17 05:36:30;;;;;;;1.33;0.63;;;12.80;99.90;;;;;;5012791;28;20548;-84
2022/11/17 05:38:55;;;;;;;1.43;0.50;;;12.80;99.90;;;;;;5030704;28;20104;-83
2022/11/17 05:41:22;;;;;;;2.90;0.80;;;12.70;99.90;;;;;;5006029;28;20475;-83
2022/11/17 05:43:49;;;;;;;1.05;0.57;;;12.70;99.90;;;;;;5004676;28;20021;-84
2022/11/17 05:46:17;;;;;;;1.45;0.40;;;12.60;99.90;;;;;;5011189;28;20078;-83
2022/11/17 05:48:42;;;;;;;0.50;0.40;;;12.60;99.90;;;;;;5034905;28;20314;-82
2022/11/17 05:51:09;;;;;;;1.40;0.30;;;12.60;99.90;;;;;;5040090;28;20314;-84
2022/11/17 05:53:35;;;;;;;1.02;0.40;;;12.60;99.90;;;;;;5006795;28;20576;-83
2022/11/17 05:56:04;;;;;;;0.77;0.50;;;12.50;99.90;;;;;;4999203;28;20330;-83
2022/11/17 05:58:32;;;;;;;1.25;0.50;;;12.50;99.90;;;;;;5019814;28;20029;-83
2022/11/17 06:00:59;;;;;;;1.17;0.50;;;12.50;99.90;;;;;;4994138;28;20350;-83
2022/11/17 06:03:40;;;;;;;1.83;0.60;;;12.50;99.90;;;;;;4996839;28;20036;-86
2022/11/17 06:06:07;;;;;;;2.30;0.68;;;12.40;99.90;;;;;;4988991;28;20031;-84
2022/11/17 06:08:34;;;;;;;1.33;0.50;;;12.40;99.90;;;;;;5008374;28;20079;-83
2022/11/17 06:11:00;;;;;;;0.70;0.40;;;12.40;99.90;;;;;;5021354;28;20179;-84
2022/11/17 06:13:27;;;;;;;1.75;0.55;;;12.40;99.90;;;;;;5004089;28;20810;-83
2022/11/17 06:15:59;;;;;;;0.73;0.60;;;12.40;99.90;;;;;;5032690;28;20021;-84
2022/11/17 06:18:30;;;;;;;3.85;0.60;;;12.40;99.90;;;;;;5013694;28;20261;-83
2022/11/17 06:20:56;;;;;;;1.27;0.50;;;12.40;99.90;;;;;;4999726;28;20394;-83
2022/11/17 06:23:26;;;;;;;0.97;0.53;;;12.40;99.90;;;;;;5013833;28;20120;-84
2022/11/17 06:25:52;;;;;;;2.35;0.50;;;12.40;99.90;;;;;;5014285;28;20028;-84
2022/11/17 06:28:20;;;;;;;1.08;0.60;;;12.40;99.90;;;;;;5023234;28;20032;-84
2022/11/17 06:30:47;;;;;;;0.63;0.50;;;12.40;99.90;;;;;;5018833;28;20497;-83
2022/11/17 06:33:15;;;;;;;0.50;0.30;;;12.30;99.90;;;;;;5016593;28;20346;-83
2022/11/17 06:35:43;;;;;;;1.15;0.40;;;12.40;99.90;;;;;;5014765;28;20021;-83
2022/11/17 06:38:09;;;;;;;1.70;0.60;;;12.40;99.90;;;;;;5000715;28;20462;-83
2022/11/17 06:40:34;;;;;;;1.77;0.60;;;12.40;99.90;;;;;;5013401;28;20066;-83
2022/11/17 06:43:08;;;;;;;1.27;0.60;;;12.40;99.90;;;;;;5024907;28;20279;-83
2022/11/17 06:45:39;;;;;;;1.75;0.47;;;12.30;99.90;;;;;;5007340;28;20096;-84
2022/11/17 06:48:05;;;;;;;0.95;0.55;;;12.30;99.90;;;;;;4999355;28;20031;-83
2022/11/17 06:50:32;;;;;;;1.30;0.60;;;12.30;99.90;;;;;;5022650;28;20025;-83
2022/11/17 06:52:59;;;;;;;1.42;0.60;;;12.30;99.90;;;;;;4998714;28;20029;-84
2022/11/17 06:55:26;;;;;;;1.27;0.60;;;12.30;99.90;;;;;;5014875;28;20380;-84
2022/11/17 06:58:00;;;;;;;1.70;0.60;;;12.30;99.90;;;;;;5040068;28;20125;-84
2022/11/17 07:00:27;;;;;;;3.05;0.60;;;12.30;99.90;;;;;;5015434;28;20067;-83
2022/11/17 07:03:02;;;;;;;2.53;0.70;;;12.30;99.90;;;;;;5017630;28;20029;-83
2022/11/17 07:05:29;;;;;;;1.85;0.60;;;12.30;99.90;;;;;;5039893;28;20053;-83
2022/11/17 07:07:59;;;;;;;0.90;0.60;;;12.30;99.90;;;;;;5019469;28;20470;-84
2022/11/17 07:10:26;;;;;;;1.60;0.50;;;12.30;99.90;;;;;;5001681;28;20049;-84
2022/11/17 07:12:52;;;;;;;2.65;0.70;;;12.30;99.90;;;;;;5023223;28;20108;-84
2022/11/17 07:15:18;;;;;;;0.80;0.50;;;12.30;99.90;;;;;;5020909;28;20519;-82
2022/11/17 07:17:44;;;;;;;1.17;0.70;;;12.30;99.90;;;;;;5026544;28;20028;-84
2022/11/17 07:20:10;;;;;;;0.60;0.57;;;12.30;99.90;;;;;;4993954;28;20037;-84
2022/11/17 07:22:36;;;;;;;1.33;0.60;;;12.30;99.90;;;;;;5015824;28;20158;-84
2022/11/17 07:25:03;;;;;;;1.02;0.70;;;12.30;99.90;;;;;;4983631;28;20161;-83
2022/11/17 07:27:29;;;;;;;1.50;0.60;;;12.30;99.90;;;;;;5005088;28;20054;-85
2022/11/17 07:29:55;;;;;;;1.98;0.60;;;12.30;99.90;;;;;;5008973;28;20051;-83
2022/11/17 07:32:23;;;;;;;1.45;0.50;;;12.30;99.90;;;;;;5011585;28;20148;-84
2022/11/17 07:34:49;;;;;;;2.70;0.80;;;12.30;99.90;;;;;;5009720;28;20488;-83
2022/11/17 07:37:15;;;;;;;1.50;0.70;;;12.30;99.90;;;;;;5029221;28;20030;-82
2022/11/17 07:39:40;;;;;;;1.48;0.50;;;12.30;99.90;;;;;;4981197;28;20037;-82
2022/11/17 07:42:06;;;;;;;1.90;0.60;;;12.30;99.90;;;;;;5042792;28;20794;-83
2022/11/17 07:44:32;;;;;;;1.88;0.57;;;12.30;99.90;;;;;;5020824;28;20560;-84
2022/11/17 07:46:57;;;;;;;1.27;0.60;;;12.30;99.90;;;;;;5040312;28;20240;-84
2022/11/17 07:49:23;;;;;;;1.83;0.60;;;12.30;99.90;;;;;;5032529;28;20028;-84
2022/11/17 07:51:48;;;;;;;0.90;0.60;;;12.30;99.90;;;;;;5014992;28;20476;-84
2022/11/17 07:54:14;;;;;;;2.23;0.57;;;12.30;99.90;;;;;;5013911;28;20032;-84
2022/11/17 07:56:40;;;;;;;1.10;0.60;;;12.30;99.90;;;;;;5016149;28;20139;-84
2022/11/17 07:59:05;;;;;;;2.40;0.70;;;12.30;99.90;;;;;;5031538;28;20291;-84
2022/11/17 08:01:31;;;;;;;1.25;0.60;;;12.30;99.90;;;;;;5004778;28;21913;-83
2022/11/17 08:03:57;;;;;;;1.83;0.60;;;12.30;99.90;;;;;;5030935;28;20053;-84
2022/11/17 08:06:23;;;;;;;0.45;0.35;;;12.20;99.90;;;;;;5020628;28;20112;-84
2022/11/17 08:08:49;;;;;;;1.10;0.50;;;12.20;99.90;;;;;;5009332;28;20238;-84
2022/11/17 08:11:15;;;;;;;1.40;0.60;;;12.20;99.90;;;;;;5003049;28;20057;-84
2022/11/17 08:13:41;;;;;;;2.42;0.70;;;12.20;99.90;;;;;;5005639;28;20254;-84
2022/11/17 08:16:08;;;;;;;0.82;0.50;;;12.20;99.90;;;;;;5021594;28;20033;-83
2022/11/17 08:18:34;;;;;;;1.20;0.63;;;12.20;99.90;;;;;;5009438;28;21780;-84
2022/11/17 08:21:08;;;;;;;1.30;0.68;;;12.20;99.90;;;;;;5015473;28;20156;-84
2022/11/17 08:23:35;;;;;;;1.33;0.68;;;12.20;99.90;;;;;;5011694;28;20029;-83
2022/11/17 08:26:02;;;;;;;2.58;0.65;;;12.10;99.90;;;;;;5011236;28;20017;-83
2022/11/17 08:28:28;;;;;;;2.38;0.65;;;12.20;99.90;;;;;;5011865;28;20095;-83
2022/11/17 08:30:54;;;;;;;2.93;0.80;;;12.10;99.90;;;;;;5024259;28;20228;-85
2022/11/17 08:33:20;;;;;;;2.28;0.70;;;12.20;99.90;;;;;;5008290;28;20020;-83
2022/11/17 08:35:46;;;;;;;1.73;0.60;;;12.10;99.90;;;;;;5021537;28;20345;-84
2022/11/17 08:38:17;;;;;;;1.10;0.50;;;12.10;99.90;;;;;;5014608;28;20009;-83
2022/11/17 08:40:42;;;;;;;2.00;0.70;;;12.20;99.90;;;;;;5000125;28;20673;-84
2022/11/17 08:43:08;;;;;;;2.05;0.70;;;12.20;99.90;;;;;;5040588;28;20025;-83
2022/11/17 08:45:34;;;;;;;2.40;1.03;;;12.20;99.90;;;;;;5024133;28;20034;-83
2022/11/17 08:47:59;;;;;;;3.10;0.70;;;12.20;99.90;;;;;;5029973;28;20025;-82
2022/11/17 08:50:25;;;;;;;2.27;0.67;;;12.20;99.90;;;;;;4997415;28;20022;-81
2022/11/17 08:52:51;;;;;;;1.35;0.60;;;12.20;99.90;;;;;;5032448;28;20025;-82
2022/11/17 08:55:17;;;;;;;3.63;1.00;;;12.30;99.90;;;;;;4992728;28;20060;-83
2022/11/17 08:57:43;;;;;;;1.67;0.60;;;12.30;99.90;;;;;;5005361;28;20833;-83
2022/11/17 09:00:10;;;;;;;1.13;0.60;;;12.40;99.90;;;;;;5044727;28;20028;-82
2022/11/17 09:02:39;;;;;;;3.08;0.80;;;12.40;99.90;;;;;;5045836;28;20516;-82
2022/11/17 09:05:05;;;;;;;3.57;0.77;;;12.50;99.90;;;;;;5014614;28;20033;-82
2022/11/17 09:07:34;;;;;;;1.10;0.60;;;12.50;99.90;;;;;;5018484;28;20021;-82
2022/11/17 09:10:00;;;;;;;0.75;0.50;;;12.60;99.90;;;;;;5028422;28;20108;-82
2022/11/17 09:12:26;;;;;;;1.75;0.70;;;12.60;99.90;;;;;;5008661;28;20036;-83
2022/11/17 09:14:51;;;;;;;3.03;0.70;;;12.60;99.90;;;;;;5019975;28;20040;-82
2022/11/17 09:17:17;;;;;;;2.28;0.68;;;12.70;99.90;;;;;;5030415;28;20033;-82
2022/11/17 09:19:43;;;;;;;1.90;0.60;;;12.80;99.90;;;;;;5010923;28;20017;-82
2022/11/17 09:22:08;;;;;;;2.10;0.60;;;12.80;99.90;;;;;;5019559;28;20021;-83
2022/11/17 09:24:34;;;;;;;2.67;0.70;;;12.90;99.90;;;;;;4990469;28;20250;-83
2022/11/17 09:27:01;;;;;;;1.85;0.70;;;12.90;99.90;;;;;;5007192;28;20022;-81
2022/11/17 09:29:28;;;;;;;0.87;0.53;;;13.00;99.90;;;;;;5032839;28;20017;-81
2022/11/17 09:31:54;;;;;;;2.05;0.63;;;13.00;99.90;;;;;;5029648;28;20137;-81
2022/11/17 09:34:19;;;;;;;4.30;0.75;;;13.10;99.90;;;;;;5036360;28;20025;-81
2022/11/17 09:36:47;;;;;;;1.53;0.57;;;13.10;99.90;;;;;;5041965;28;20061;-81
2022/11/17 09:39:14;;;;;;;0.85;0.57;;;13.20;99.90;;;;;;5013506;28;21582;-81
2022/11/17 09:41:51;;;;;;;1.70;0.70;;;13.20;99.90;;;;;;4999836;28;21216;-81
2022/11/17 09:44:44;;;;;;;2.87;0.50;;;13.30;99.90;;;;;;5008838;28;20212;-82
2022/11/17 09:47:29;;;;;;;1.80;0.60;;;13.30;99.90;;;;;;5012995;28;20049;-81
2022/11/17 09:50:21;;;;;;;2.05;0.75;;;13.40;99.90;;;;;;5045009;28;20026;-80
2022/11/17 09:53:08;;;;;;;2.50;0.75;;;13.40;99.90;;;;;;5054384;28;20029;-81
2022/11/17 09:55:40;;;;;;;2.40;0.60;;;13.40;99.90;;;;;;5020973;28;20053;-81
2022/11/17 09:58:47;;;;;;;1.10;0.60;;;13.50;99.90;;;;;;5004850;28;20064;-80
2022/11/17 10:01:15;;;;;;;2.42;0.50;;;13.50;99.90;;;;;;5001871;28;20308;-81
2022/11/17 10:03:46;;;;;;;2.97;0.70;;;13.50;99.90;;;;;;5020539;28;20321;-81
2022/11/17 10:06:40;;;;;;;2.38;0.70;;;13.60;99.90;;;;;;5026029;28;20036;-80
2022/11/17 10:09:35;;;;;;;3.70;0.80;;;13.60;99.90;;;;;;5036365;28;20585;-81
2022/11/17 10:12:30;;;;;;;2.57;0.60;;;13.60;99.90;;;;;;5030018;28;20033;-80
2022/11/17 10:14:57;;;;;;;1.98;0.60;;;13.60;99.90;;;;;;5016340;28;20025;-80
2022/11/17 10:17:22;;;;;;;3.05;0.60;;;13.70;99.90;;;;;;5012976;28;20060;-81
2022/11/17 10:19:48;;;;;;;2.13;0.60;;;13.70;99.90;;;;;;5031942;28;20053;-80
2022/11/17 10:22:43;;;;;;;1.92;0.70;;;13.80;99.90;;;;;;5008733;28;20108;-81
2022/11/17 10:25:37;;;;;;;1.80;0.70;;;13.90;99.90;;;;;;5024567;28;20046;-80
2022/11/17 10:28:06;;;;;;;3.13;0.73;;;14.00;99.90;;;;;;5009674;28;20608;-83
2022/11/17 10:30:32;;;;;;;1.65;0.60;;;14.10;99.90;;;;;;5008932;28;20811;-81
2022/11/17 10:33:00;;;;;;;1.60;0.43;;;14.20;99.90;;;;;;5027468;28;20104;-81
2022/11/17 10:35:29;;;;;;;1.35;0.60;;;14.20;99.90;;;;;;5058841;28;20469;-81
2022/11/17 10:38:05;;;;;;;2.30;0.70;;;14.40;99.90;;;;;;5020665;28;20057;-80
2022/11/17 10:40:37;;;;;;;2.37;0.60;;;14.40;99.50;;;;;;5009913;28;20420;-81
2022/11/17 10:43:12;;;;;;;1.92;0.77;;;14.50;99.10;;;;;;5023988;28;20528;-81
2022/11/17 10:45:46;;;;;;;2.35;0.70;;;14.40;99.90;;;;;;5004147;28;20033;-80
2022/11/17 10:48:23;;;;;;;1.65;0.50;;;14.40;98.70;;;;;;5011453;28;20026;-81
2022/11/17 10:51:01;;;;;;;0.88;0.57;;;14.40;99.90;;;;;;5038186;28;20051;-80
2022/11/17 10:53:29;;;;;;;3.30;0.60;;;14.40;99.90;;;;;;5024794;28;20021;-80
2022/11/17 10:56:03;;;;;;;2.30;0.70;;;14.40;99.40;;;;;;5007212;28;20104;-80
2022/11/17 10:58:31;;;;;;;1.10;0.60;;;14.40;99.90;;;;;;5018075;28;20099;-81
2022/11/17 11:01:08;;;;;;;1.88;0.63;;;14.40;99.90;;;;;;5042560;28;20026;-80
2022/11/17 11:03:34;;;;;;;1.38;0.60;;;14.30;99.30;;;;;;5014453;28;20181;-80
2022/11/17 11:06:20;;;;;;;3.37;0.70;;;14.30;99.90;;;;;;5021175;28;20096;-80
2022/11/17 11:08:53;;;;;;;1.25;0.50;;;14.30;99.90;;;;;;5007169;28;20332;-80
2022/11/17 11:11:31;;;;;;;1.20;0.50;;;14.20;99.70;;;;;;5020883;28;20146;-80
2022/11/17 11:14:01;;;;;;;1.58;0.68;;;14.20;99.10;;;;;;5012917;28;20284;-81
2022/11/17 11:16:29;;;;;;;1.90;0.50;;;14.10;99.90;;;;;;5004811;28;20372;-80
2022/11/17 11:18:56;;;;;;;3.47;0.70;;;14.10;99.90;;;;;;5027683;28;20073;-81
2022/11/17 11:21:42;;;;;;;2.45;0.70;;;14.10;99.90;;;;;;5037627;28;20048;-80
2022/11/17 11:24:23;;;;;;;2.50;0.70;;;14.10;99.80;;;;;;5007340;28;20033;-80
2022/11/17 11:27:13;;;;;;;2.28;0.68;;;14.10;99.80;;;;;;5020703;28;20219;-81
2022/11/17 11:30:00;;;;;;;1.08;0.60;;;14.20;99.90;;;;;;5014082;28;20059;-81
2022/11/17 11:32:44;;;;;;;1.73;0.60;;;14.20;99.90;;;;;;5056621;28;20048;-81
2022/11/17 11:35:51;;;;;;;1.15;0.68;;;14.30;99.90;;;;;;5035496;28;20032;-80
2022/11/17 11:38:22;;;;;;;1.45;0.70;;;14.40;99.90;;;;;;5025332;28;20553;-81
2022/11/17 11:41:05;;;;;;;2.85;0.88;;;14.40;99.90;;;;;;5013304;28;20593;-80
2022/11/17 11:43:49;;;;;;;2.47;0.80;;;14.50;99.50;;;;;;4999610;28;20041;-80
2022/11/17 11:46:25;;;;;;;1.93;0.80;;;14.50;98.90;;;;;;5007757;28;20044;-81
2022/11/17 11:48:54;;;;;;;1.60;0.75;;;14.60;99.90;;;;;;5020737;28;20251;-80
2022/11/17 11:51:27;;;;;;;1.83;0.80;;;14.60;99.90;;;;;;5024767;28;20478;-80
2022/11/17 11:54:02;;;;;;;2.05;0.90;;;14.80;99.90;;;;;;5022020;28;20050;-80
2022/11/17 11:56:36;;;;;;;2.65;0.80;;;14.80;99.30;;;;;;5025000;28;20033;-81
2022/11/17 11:59:06;;;;;;;2.30;0.80;;;15.00;99.90;;;;;;5023981;28;20024;-80
2022/11/17 12:01:58;;;;;;;3.17;0.75;;;15.00;99.90;;;;;;5009004;28;20071;-80
2022/11/17 12:05:04;;;;;;;1.45;0.50;;;15.10;99.90;;;;;;5024390;28;20076;-80
2022/11/17 12:07:32;;;;;;;1.30;0.63;;;15.20;98.30;;;;;;5015307;28;20028;-81
2022/11/17 12:10:28;;;;;;;1.95;1.00;;;15.20;99.40;;;;;;5016730;28;20029;-80
2022/11/17 12:12:54;;;;;;;2.13;0.70;;;15.20;96.40;;;;;;5012235;28;20032;-80
2022/11/17 12:15:19;;;;;;;1.23;0.70;;;15.30;99.90;;;;;;5025171;28;20409;-82
2022/11/17 12:17:58;;;;;;;2.30;0.80;;;15.40;99.90;;;;;;5021781;28;20270;-80
2022/11/17 12:20:46;;;;;;;1.37;0.50;;;15.40;98.30;;;;;;5032135;28;20037;-79
2022/11/17 12:23:46;;;;;;;1.25;0.70;;;15.50;97.70;;;;;;5011520;28;20521;-80
2022/11/17 12:26:25;;;;;;;2.25;0.70;;;15.50;98.50;;;;;;5007130;28;20116;-81
2022/11/17 12:29:20;;;;;;;1.73;0.80;;;15.50;98.30;;;;;;5022339;28;20025;-79
2022/11/17 12:31:47;;;;;;;1.20;0.70;;;15.50;95.80;;;;;;5008278;28;20976;-81
2022/11/17 12:34:34;;;;;;;2.43;0.80;;;15.50;98.30;;;;;;5034213;28;20029;-80
2022/11/17 12:37:17;;;;;;;1.83;0.55;;;15.40;97.40;;;;;;5025865;28;20099;-80
2022/11/17 12:39:59;;;;;;;0.77;0.55;;;15.50;97.10;;;;;;5025398;28;20044;-80
2022/11/17 12:42:26;;;;;;;1.52;0.60;;;15.50;98.60;;;;;;5028325;28;20360;-81
2022/11/17 12:44:56;;;;;;;2.00;0.60;;;15.60;99.40;;;;;;5024549;28;20099;-81
2022/11/17 12:47:26;;;;;;;0.73;0.53;;;15.70;99.30;;;;;;5036866;28;20030;-80
2022/11/17 12:50:07;;;;;;;0.80;0.60;;;15.80;99.50;;;;;;5015412;28;20021;-80
2022/11/17 12:52:39;;;;;;;1.77;0.80;;;15.80;96.30;;;;;;5010814;28;20029;-79
2022/11/17 12:55:25;;;;;;;1.50;0.90;;;15.80;96.60;;;;;;5032480;28;20052;-79
2022/11/17 12:58:17;;;;;;;2.47;0.80;;;15.70;93.10;;;;;;5021613;28;20048;-81
2022/11/17 13:01:06;;;;;;;1.90;0.90;;;15.60;95.00;;;;;;5021806;28;20071;-79
2022/11/17 13:03:42;;;;;;;1.33;0.70;;;15.50;95.80;;;;;;5003149;28;20095;-81
2022/11/17 13:06:11;;;;;;;3.42;0.70;;;15.50;97.20;;;;;;5029838;28;20111;-81
2022/11/17 13:08:37;;;;;;;1.52;0.70;;;15.50;97.70;;;;;;5010708;28;20135;-81
2022/11/17 13:11:06;;;;;;;2.57;0.80;;;15.40;97.80;;;;;;5028241;28;20033;-81
2022/11/17 13:13:32;;;;;;;1.67;0.60;;;15.40;98.40;;;;;;5031199;28;20025;-80
2022/11/17 13:16:00;;;;;;;0.65;0.50;;;15.50;98.40;;;;;;5024104;28;20767;-81
2022/11/17 13:18:40;;;;;;;1.77;0.60;;;15.50;98.50;;;;;;5043698;28;20028;-79
2022/11/17 13:21:23;;;;;;;1.73;0.70;;;15.60;98.20;;;;;;5051638;28;20026;-81
2022/11/17 13:23:50;;;;;;;1.35;0.60;;;15.60;93.20;;;;;;5033119;28;20033;-80
2022/11/17 13:26:15;;;;;;;2.58;0.70;;;15.50;98.40;;;;;;5027154;28;20029;-81
2022/11/17 13:28:42;;;;;;;2.50;0.70;;;15.60;98.30;;;;;;5026927;28;20187;-81
2022/11/17 13:31:20;;;;;;;1.33;0.70;;;15.60;98.00;;;;;;5030771;28;20679;-81
2022/11/17 13:34:05;;;;;;;2.15;0.60;;;15.60;96.50;;;;;;5009863;28;20348;-81
2022/11/17 13:36:32;;;;;;;1.20;0.70;;;15.70;96.70;;;;;;5009032;28;20070;-80
2022/11/17 13:39:00;;;;;;;2.72;0.80;;;15.60;98.20;;;;;;5059421;28;20147;-81